Aldwick, United Kingdom
Current Conditions -  °F | °C
As of 1:50 PM on Thursday 30 Oct 2014 (Local Time) from EGGD Reporting Station
Broken Clouds Broken Clouds  
Wind Chill: 61°   Ceiling: 600
Heat Index: 61°   Visibility: 4mi
Dew Point: 57°   Wind: 9mph
Humidity: 88%   Direction: 160°SSE
Pressure: 30.03"   Gusts: NA
Location:  51.34°N, 2.77°W
Report Text: EGGD 301350Z 16008KT 6000 BKN006 16/14 Q1017
Loading
Personal Weather Stations






























Interactive Weather Map New forecast layout! Learn more

10-Day Weather Forecast

Advertisements
Track Severe Weather on mobile